sensor_id;sensor_type;location;lat;lon;timestamp;pressure;altitude;pressure_sealevel;temperature;humidity
20027;BME280;10174;42.688;23.344;2022-09-27T00:00:29;94390.16;;;14.86;93.82
20027;BME280;10174;42.688;23.344;2022-09-27T00:02:54;94409.44;;;15.02;93.13
20027;BME280;10174;42.688;23.344;2022-09-27T00:05:19;94406.69;;;14.93;93.26
20027;BME280;10174;42.688;23.344;2022-09-27T00:07:45;94392.66;;;14.82;93.41
20027;BME280;10174;42.688;23.344;2022-09-27T00:10:11;94420.53;;;14.91;92.40
20027;BME280;10174;42.688;23.344;2022-09-27T00:12:37;94331.75;;;14.45;91.59
20027;BME280;10174;42.688;23.344;2022-09-27T00:15:04;94414.06;;;15.01;92.00
20027;BME280;10174;42.688;23.344;2022-09-27T00:17:29;94304.19;;;14.34;91.83
20027;BME280;10174;42.688;23.344;2022-09-27T00:19:55;94413.25;;;15.01;92.53
20027;BME280;10174;42.688;23.344;2022-09-27T00:22:21;94407.16;;;14.86;92.61
20027;BME280;10174;42.688;23.344;2022-09-27T00:24:48;94413.25;;;14.92;92.52
20027;BME280;10174;42.688;23.344;2022-09-27T00:27:13;94420.72;;;14.95;91.37
20027;BME280;10174;42.688;23.344;2022-09-27T00:29:38;94445.84;;;14.95;92.19
20027;BME280;10174;42.688;23.344;2022-09-27T00:32:04;94435.25;;;14.76;92.25
20027;BME280;10174;42.688;23.344;2022-09-27T00:34:29;94420.81;;;14.81;92.15
20027;BME280;10174;42.688;23.344;2022-09-27T00:36:55;94428.59;;;14.74;92.37
20027;BME280;10174;42.688;23.344;2022-09-27T00:39:20;94419.50;;;14.70;92.38
20027;BME280;10174;42.688;23.344;2022-09-27T00:41:46;94402.53;;;14.55;92.22
20027;BME280;10174;42.688;23.344;2022-09-27T00:47:07;94416.31;;;14.68;92.77
20027;BME280;10174;42.688;23.344;2022-09-27T00:49:47;94336.22;;;14.18;91.65
20027;BME280;10174;42.688;23.344;2022-09-27T00:52:20;94391.69;;;14.47;92.70
20027;BME280;10174;42.688;23.344;2022-09-27T00:54:49;94380.88;;;14.47;92.35
20027;BME280;10174;42.688;23.344;2022-09-27T00:57:18;94385.50;;;14.55;92.85
20027;BME280;10174;42.688;23.344;2022-09-27T00:59:50;94245.22;;;13.64;92.54
20027;BME280;10174;42.688;23.344;2022-09-27T01:02:17;94383.88;;;14.68;92.03
20027;BME280;10174;42.688;23.344;2022-09-27T01:04:43;94371.63;;;14.70;91.30
20027;BME280;10174;42.688;23.344;2022-09-27T01:07:10;94288.38;;;14.10;91.69
20027;BME280;10174;42.688;23.344;2022-09-27T01:09:35;94393.03;;;14.89;90.11
20027;BME280;10174;42.688;23.344;2022-09-27T01:12:23;94395.47;;;14.68;91.49
20027;BME280;10174;42.688;23.344;2022-09-27T01:15:27;94388.47;;;14.67;92.54
20027;BME280;10174;42.688;23.344;2022-09-27T01:29:03;94393.75;;;14.81;91.06
20027;BME280;10174;42.688;23.344;2022-09-27T01:31:38;94373.06;;;14.76;90.07
20027;BME280;10174;42.688;23.344;2022-09-27T01:47:51;94369.22;;;14.37;92.59
20027;BME280;10174;42.688;23.344;2022-09-27T01:50:23;94355.50;;;14.25;93.00
20027;BME280;10174;42.688;23.344;2022-09-27T01:52:59;94375.72;;;14.36;93.41
20027;BME280;10174;42.688;23.344;2022-09-27T01:55:29;94395.09;;;14.30;94.48
20027;BME280;10174;42.688;23.344;2022-09-27T01:58:03;94386.31;;;14.24;94.03
20027;BME280;10174;42.688;23.344;2022-09-27T02:00:31;94366.69;;;14.10;93.75
20027;BME280;10174;42.688;23.344;2022-09-27T02:03:00;94331.44;;;13.92;94.21
20027;BME280;10174;42.688;23.344;2022-09-27T02:05:36;94369.72;;;14.17;95.69
20027;BME280;10174;42.688;23.344;2022-09-27T02:08:11;94367.53;;;14.19;94.68
20027;BME280;10174;42.688;23.344;2022-09-27T02:10:41;94366.31;;;14.25;94.73
20027;BME280;10174;42.688;23.344;2022-09-27T02:13:22;94359.28;;;14.24;94.83
20027;BME280;10174;42.688;23.344;2022-09-27T02:19:23;94191.44;;;13.23;94.63
20027;BME280;10174;42.688;23.344;2022-09-27T02:21:34;94231.38;;;13.57;94.84
20027;BME280;10174;42.688;23.344;2022-09-27T02:24:03;94333.91;;;14.34;95.17
20027;BME280;10174;42.688;23.344;2022-09-27T02:26:37;94306.41;;;14.32;95.70
20027;BME280;10174;42.688;23.344;2022-09-27T02:29:10;94306.94;;;14.42;94.66
20027;BME280;10174;42.688;23.344;2022-09-27T02:31:38;94309.16;;;14.40;94.66
20027;BME280;10174;42.688;23.344;2022-09-27T02:34:06;94293.78;;;14.50;93.85
20027;BME280;10174;42.688;23.344;2022-09-27T02:36:33;94298.22;;;14.46;93.67
20027;BME280;10174;42.688;23.344;2022-09-27T02:38:58;94289.34;;;14.54;92.79
20027;BME280;10174;42.688;23.344;2022-09-27T02:41:25;94274.25;;;14.53;93.36
20027;BME280;10174;42.688;23.344;2022-09-27T02:44:01;94269.78;;;14.48;94.46
20027;BME280;10174;42.688;23.344;2022-09-27T02:46:47;94234.38;;;14.10;94.32
20027;BME280;10174;42.688;23.344;2022-09-27T02:55:01;94299.09;;;14.32;94.52
20027;BME280;10174;42.688;23.344;2022-09-27T03:00:08;94320.09;;;14.35;94.80
20027;BME280;10174;42.688;23.344;2022-09-27T03:05:41;94301.81;;;14.32;94.59
20027;BME280;10174;42.688;23.344;2022-09-27T03:08:08;94274.16;;;14.27;95.18
20027;BME280;10174;42.688;23.344;2022-09-27T03:10:35;94167.66;;;13.70;94.58
20027;BME280;10174;42.688;23.344;2022-09-27T03:13:00;94262.41;;;14.31;95.20
20027;BME280;10174;42.688;23.344;2022-09-27T03:15:26;94249.03;;;14.26;95.12
20027;BME280;10174;42.688;23.344;2022-09-27T03:17:51;94238.41;;;14.30;95.49
20027;BME280;10174;42.688;23.344;2022-09-27T03:20:16;94168.16;;;13.81;95.48
20027;BME280;10174;42.688;23.344;2022-09-27T03:22:42;94144.91;;;13.62;95.18
20027;BME280;10174;42.688;23.344;2022-09-27T03:25:08;94238.22;;;14.26;95.46
20027;BME280;10174;42.688;23.344;2022-09-27T03:27:33;94142.22;;;13.71;95.04
20027;BME280;10174;42.688;23.344;2022-09-27T03:29:58;94243.97;;;14.33;95.36
20027;BME280;10174;42.688;23.344;2022-09-27T03:32:25;94228.41;;;14.30;95.42
20027;BME280;10174;42.688;23.344;2022-09-27T03:34:51;94140.34;;;13.80;95.06
20027;BME280;10174;42.688;23.344;2022-09-27T03:37:18;94210.78;;;14.33;94.58
20027;BME280;10174;42.688;23.344;2022-09-27T03:39:43;94232.44;;;14.50;94.22
20027;BME280;10174;42.688;23.344;2022-09-27T03:42:08;94224.31;;;14.41;94.44
20027;BME280;10174;42.688;23.344;2022-09-27T03:44:34;94239.72;;;14.41;94.78
20027;BME280;10174;42.688;23.344;2022-09-27T03:46:59;94180.78;;;13.94;94.65
20027;BME280;10174;42.688;23.344;2022-09-27T03:49:25;94242.38;;;14.32;95.21
20027;BME280;10174;42.688;23.344;2022-09-27T03:51:50;94225.22;;;14.28;95.56
20027;BME280;10174;42.688;23.344;2022-09-27T03:54:15;94236.50;;;14.30;95.54
20027;BME280;10174;42.688;23.344;2022-09-27T03:56:41;94243.81;;;14.30;95.59
20027;BME280;10174;42.688;23.344;2022-09-27T03:59:06;94248.56;;;14.24;95.45
20027;BME280;10174;42.688;23.344;2022-09-27T04:01:31;94230.63;;;14.28;95.01
20027;BME280;10174;42.688;23.344;2022-09-27T04:03:59;94073.53;;;13.37;94.67
20027;BME280;10174;42.688;23.344;2022-09-27T04:06:25;94080.31;;;13.34;94.61
20027;BME280;10174;42.688;23.344;2022-09-27T04:08:51;94238.91;;;14.40;94.48
20027;BME280;10174;42.688;23.344;2022-09-27T04:11:16;94240.69;;;14.45;94.70
20027;BME280;10174;42.688;23.344;2022-09-27T04:13:42;94238.91;;;14.40;94.32
20027;BME280;10174;42.688;23.344;2022-09-27T04:16:08;94212.53;;;14.37;94.07
20027;BME280;10174;42.688;23.344;2022-09-27T04:18:34;94230.84;;;14.49;93.75
20027;BME280;10174;42.688;23.344;2022-09-27T04:20:59;94131.63;;;13.83;93.57
20027;BME280;10174;42.688;23.344;2022-09-27T04:23:24;94207.28;;;14.41;93.88
20027;BME280;10174;42.688;23.344;2022-09-27T04:25:50;94217.97;;;14.55;94.01
20027;BME280;10174;42.688;23.344;2022-09-27T04:28:15;94221.81;;;14.54;94.09
20027;BME280;10174;42.688;23.344;2022-09-27T04:30:41;94199.50;;;14.39;94.45
20027;BME280;10174;42.688;23.344;2022-09-27T04:33:06;94147.59;;;14.02;94.33
20027;BME280;10174;42.688;23.344;2022-09-27T04:35:32;94214.13;;;14.38;94.14
20027;BME280;10174;42.688;23.344;2022-09-27T04:38:16;94231.28;;;14.42;95.01
20027;BME280;10174;42.688;23.344;2022-09-27T04:40:43;94134.84;;;13.85;94.27
20027;BME280;10174;42.688;23.344;2022-09-27T04:43:09;94222.09;;;14.43;94.39
20027;BME280;10174;42.688;23.344;2022-09-27T04:45:34;94212.25;;;14.48;93.61
20027;BME280;10174;42.688;23.344;2022-09-27T04:48:00;94207.47;;;14.45;93.52
20027;BME280;10174;42.688;23.344;2022-09-27T04:50:25;94242.50;;;14.67;93.42
20027;BME280;10174;42.688;23.344;2022-09-27T04:52:51;94241.56;;;14.63;93.46
20027;BME280;10174;42.688;23.344;2022-09-27T04:55:18;94243.00;;;14.69;93.03
20027;BME280;10174;42.688;23.344;2022-09-27T04:57:44;94235.31;;;14.54;93.11
20027;BME280;10174;42.688;23.344;2022-09-27T05:00:11;94244.38;;;14.58;93.50
20027;BME280;10174;42.688;23.344;2022-09-27T05:02:37;93969.38;;;12.87;93.30
20027;BME280;10174;42.688;23.344;2022-09-27T05:05:02;94252.69;;;14.70;93.03
20027;BME280;10174;42.688;23.344;2022-09-27T05:07:28;94246.59;;;14.56;93.14
20027;BME280;10174;42.688;23.344;2022-09-27T05:09:54;94219.56;;;14.56;93.22
20027;BME280;10174;42.688;23.344;2022-09-27T05:12:20;94224.84;;;14.61;94.18
20027;BME280;10174;42.688;23.344;2022-09-27T05:14:46;94129.81;;;14.01;94.55
20027;BME280;10174;42.688;23.344;2022-09-27T05:17:12;94217.09;;;14.68;94.14
20027;BME280;10174;42.688;23.344;2022-09-27T05:19:37;94209.28;;;14.67;94.83
20027;BME280;10174;42.688;23.344;2022-09-27T05:22:04;94200.03;;;14.59;94.58
20027;BME280;10174;42.688;23.344;2022-09-27T05:24:30;94201.75;;;14.55;94.25
20027;BME280;10174;42.688;23.344;2022-09-27T05:26:57;94209.44;;;14.70;94.13
20027;BME280;10174;42.688;23.344;2022-09-27T05:29:23;94183.34;;;14.57;93.72
20027;BME280;10174;42.688;23.344;2022-09-27T05:31:48;94211.09;;;14.89;93.73
20027;BME280;10174;42.688;23.344;2022-09-27T05:34:14;94190.38;;;14.75;93.86
20027;BME280;10174;42.688;23.344;2022-09-27T05:36:39;94192.47;;;14.87;93.99
20027;BME280;10174;42.688;23.344;2022-09-27T05:39:05;94216.31;;;15.20;92.94
20027;BME280;10174;42.688;23.344;2022-09-27T05:41:31;94220.31;;;15.23;92.13
20027;BME280;10174;42.688;23.344;2022-09-27T05:43:57;94071.09;;;14.16;91.62
20027;BME280;10174;42.688;23.344;2022-09-27T05:46:23;94231.44;;;15.12;91.87
20027;BME280;10174;42.688;23.344;2022-09-27T05:48:48;94215.84;;;14.92;91.81
20027;BME280;10174;42.688;23.344;2022-09-27T05:51:14;94214.25;;;14.91;91.66
20027;BME280;10174;42.688;23.344;2022-09-27T05:53:39;94211.72;;;15.03;91.40
20027;BME280;10174;42.688;23.344;2022-09-27T05:56:05;94201.84;;;14.90;91.91
20027;BME280;10174;42.688;23.344;2022-09-27T05:58:30;94238.28;;;15.01;91.99
20027;BME280;10174;42.688;23.344;2022-09-27T06:00:56;94232.06;;;14.83;92.84
20027;BME280;10174;42.688;23.344;2022-09-27T06:03:21;94230.00;;;14.89;93.10
20027;BME280;10174;42.688;23.344;2022-09-27T06:05:47;94219.03;;;14.94;93.26
20027;BME280;10174;42.688;23.344;2022-09-27T06:08:13;94228.44;;;14.96;93.40
20027;BME280;10174;42.688;23.344;2022-09-27T06:10:39;94222.69;;;14.89;93.34
20027;BME280;10174;42.688;23.344;2022-09-27T06:13:10;94238.75;;;15.03;92.79
20027;BME280;10174;42.688;23.344;2022-09-27T06:15:37;94216.63;;;14.84;92.62
20027;BME280;10174;42.688;23.344;2022-09-27T06:18:11;94236.03;;;14.94;93.18
20027;BME280;10174;42.688;23.344;2022-09-27T06:20:38;94229.69;;;14.99;93.10
20027;BME280;10174;42.688;23.344;2022-09-27T06:25:34;94218.25;;;15.11;93.96
20027;BME280;10174;42.688;23.344;2022-09-27T06:28:00;94221.25;;;15.27;93.54
20027;BME280;10174;42.688;23.344;2022-09-27T06:30:26;94209.16;;;15.16;92.45
20027;BME280;10174;42.688;23.344;2022-09-27T06:32:56;94219.69;;;15.26;92.87
20027;BME280;10174;42.688;23.344;2022-09-27T06:35:22;94208.22;;;15.11;92.11
20027;BME280;10174;42.688;23.344;2022-09-27T06:37:49;94223.03;;;15.23;92.56
20027;BME280;10174;42.688;23.344;2022-09-27T06:40:15;94195.78;;;15.28;92.10
20027;BME280;10174;42.688;23.344;2022-09-27T06:42:40;94197.72;;;15.36;91.76
20027;BME280;10174;42.688;23.344;2022-09-27T06:45:06;94212.81;;;15.46;92.23
20027;BME280;10174;42.688;23.344;2022-09-27T06:47:38;94220.28;;;15.40;92.57
20027;BME280;10174;42.688;23.344;2022-09-27T06:50:04;94223.00;;;15.40;92.71
20027;BME280;10174;42.688;23.344;2022-09-27T06:52:34;94231.44;;;15.39;92.67
20027;BME280;10174;42.688;23.344;2022-09-27T06:55:02;94236.06;;;15.38;92.59
20027;BME280;10174;42.688;23.344;2022-09-27T06:57:28;94191.03;;;15.25;92.62
20027;BME280;10174;42.688;23.344;2022-09-27T07:00:12;94205.66;;;15.41;92.55
20027;BME280;10174;42.688;23.344;2022-09-27T07:02:54;94214.88;;;15.40;92.64
20027;BME280;10174;42.688;23.344;2022-09-27T07:05:26;94159.69;;;14.98;92.92
20027;BME280;10174;42.688;23.344;2022-09-27T07:07:54;94230.50;;;15.26;93.02
20027;BME280;10174;42.688;23.344;2022-09-27T07:10:26;94239.25;;;15.49;92.18
20027;BME280;10174;42.688;23.344;2022-09-27T07:12:52;94226.16;;;15.68;90.81
20027;BME280;10174;42.688;23.344;2022-09-27T07:15:18;94227.59;;;15.66;90.91
20027;BME280;10174;42.688;23.344;2022-09-27T07:17:46;94171.63;;;15.23;91.22
20027;BME280;10174;42.688;23.344;2022-09-27T07:20:12;94227.13;;;15.55;92.30
20027;BME280;10174;42.688;23.344;2022-09-27T07:22:41;94230.94;;;15.54;92.28
20027;BME280;10174;42.688;23.344;2022-09-27T07:25:08;94226.66;;;15.53;92.38
20027;BME280;10174;42.688;23.344;2022-09-27T07:27:33;94222.69;;;15.59;92.46
20027;BME280;10174;42.688;23.344;2022-09-27T07:29:59;94236.50;;;15.75;92.15
20027;BME280;10174;42.688;23.344;2022-09-27T07:32:25;94247.81;;;15.77;91.48
20027;BME280;10174;42.688;23.344;2022-09-27T07:34:50;94240.31;;;15.74;91.30
20027;BME280;10174;42.688;23.344;2022-09-27T07:37:16;94244.63;;;15.66;91.59
20027;BME280;10174;42.688;23.344;2022-09-27T07:39:42;94237.00;;;15.60;91.55
20027;BME280;10174;42.688;23.344;2022-09-27T07:42:07;94245.56;;;15.71;91.43
20027;BME280;10174;42.688;23.344;2022-09-27T07:44:33;94243.00;;;15.74;91.49
20027;BME280;10174;42.688;23.344;2022-09-27T07:46:58;94246.34;;;15.71;92.03
20027;BME280;10174;42.688;23.344;2022-09-27T07:49:23;94233.31;;;15.64;91.99
20027;BME280;10174;42.688;23.344;2022-09-27T07:51:49;94260.69;;;15.89;91.70
20027;BME280;10174;42.688;23.344;2022-09-27T07:54:15;94262.44;;;15.94;91.76
20027;BME280;10174;42.688;23.344;2022-09-27T07:56:41;94245.38;;;16.02;90.77
20027;BME280;10174;42.688;23.344;2022-09-27T07:59:06;94246.94;;;16.12;91.33
20027;BME280;10174;42.688;23.344;2022-09-27T08:01:32;94247.25;;;16.10;91.33
20027;BME280;10174;42.688;23.344;2022-09-27T08:03:58;94143.25;;;15.46;91.03
20027;BME280;10174;42.688;23.344;2022-09-27T08:06:24;94241.91;;;15.93;91.69
20027;BME280;10174;42.688;23.344;2022-09-27T08:08:49;94228.84;;;15.95;92.15
20027;BME280;10174;42.688;23.344;2022-09-27T08:11:16;94159.97;;;15.48;92.90
20027;BME280;10174;42.688;23.344;2022-09-27T08:13:43;94224.25;;;15.87;92.95
20027;BME280;10174;42.688;23.344;2022-09-27T08:16:09;94209.75;;;15.82;93.20
20027;BME280;10174;42.688;23.344;2022-09-27T08:18:35;94222.63;;;15.77;92.96
20027;BME280;10174;42.688;23.344;2022-09-27T08:21:01;94224.25;;;15.78;93.52
20027;BME280;10174;42.688;23.344;2022-09-27T08:23:28;94206.25;;;15.64;93.01
20027;BME280;10174;42.688;23.344;2022-09-27T08:25:54;94143.63;;;15.19;93.34
20027;BME280;10174;42.688;23.344;2022-09-27T08:28:21;94224.91;;;15.83;93.47
20027;BME280;10174;42.688;23.344;2022-09-27T08:30:49;94224.25;;;15.69;93.04
20027;BME280;10174;42.688;23.344;2022-09-27T08:33:15;94215.16;;;15.82;92.95
20027;BME280;10174;42.688;23.344;2022-09-27T08:35:41;94192.56;;;15.78;93.53
20027;BME280;10174;42.688;23.344;2022-09-27T08:38:09;94204.75;;;16.02;93.06
20027;BME280;10174;42.688;23.344;2022-09-27T08:46:29;94197.41;;;16.71;91.79
20027;BME280;10174;42.688;23.344;2022-09-27T08:49:04;94162.34;;;16.66;91.02
20027;BME280;10174;42.688;23.344;2022-09-27T08:51:34;94115.19;;;16.58;90.43
20027;BME280;10174;42.688;23.344;2022-09-27T08:54:16;94189.66;;;16.90;90.13
20027;BME280;10174;42.688;23.344;2022-09-27T08:56:46;94156.53;;;16.76;89.38
20027;BME280;10174;42.688;23.344;2022-09-27T08:59:15;94204.69;;;17.30;87.14
20027;BME280;10174;42.688;23.344;2022-09-27T09:01:49;94191.63;;;17.23;88.52
20027;BME280;10174;42.688;23.344;2022-09-27T09:04:29;94127.94;;;16.87;88.93
20027;BME280;10174;42.688;23.344;2022-09-27T09:07:19;94194.03;;;17.58;89.29
20027;BME280;10174;42.688;23.344;2022-09-27T09:10:42;94152.25;;;17.51;87.43
20027;BME280;10174;42.688;23.344;2022-09-27T09:13:07;94141.25;;;17.35;86.49
20027;BME280;10174;42.688;23.344;2022-09-27T09:15:52;94185.25;;;17.74;86.16
20027;BME280;10174;42.688;23.344;2022-09-27T09:24:25;94184.50;;;17.86;85.17
20027;BME280;10174;42.688;23.344;2022-09-27T09:32:41;94181.72;;;17.61;85.28
20027;BME280;10174;42.688;23.344;2022-09-27T09:35:27;94172.44;;;18.08;84.87
20027;BME280;10174;42.688;23.344;2022-09-27T09:37:58;94157.47;;;18.14;83.33
20027;BME280;10174;42.688;23.344;2022-09-27T09:40:29;94120.66;;;17.79;84.09
20027;BME280;10174;42.688;23.344;2022-09-27T09:43:04;94104.25;;;17.88;83.30
20027;BME280;10174;42.688;23.344;2022-09-27T09:45:37;94167.69;;;18.42;83.15
20027;BME280;10174;42.688;23.344;2022-09-27T09:48:42;94180.22;;;18.83;81.75
20027;BME280;10174;42.688;23.344;2022-09-27T09:51:15;94171.50;;;18.90;81.19
20027;BME280;10174;42.688;23.344;2022-09-27T09:54:12;94188.13;;;19.13;80.18
20027;BME280;10174;42.688;23.344;2022-09-27T09:56:45;94184.22;;;18.74;80.88
20027;BME280;10174;42.688;23.344;2022-09-27T09:59:34;94164.50;;;18.64;81.62
20027;BME280;10174;42.688;23.344;2022-09-27T10:02:16;94173.44;;;18.77;81.98
20027;BME280;10174;42.688;23.344;2022-09-27T10:04:44;94160.75;;;18.57;82.75
20027;BME280;10174;42.688;23.344;2022-09-27T10:07:09;94118.06;;;18.57;80.38
20027;BME280;10174;42.688;23.344;2022-09-27T10:09:34;94164.25;;;18.82;81.13
20027;BME280;10174;42.688;23.344;2022-09-27T10:12:00;94152.25;;;18.83;80.69
20027;BME280;10174;42.688;23.344;2022-09-27T10:14:26;94150.69;;;18.57;82.16
20027;BME280;10174;42.688;23.344;2022-09-27T10:16:57;94113.34;;;18.29;82.70
20027;BME280;10174;42.688;23.344;2022-09-27T10:19:32;94150.22;;;18.92;82.51
20027;BME280;10174;42.688;23.344;2022-09-27T10:22:22;94123.19;;;18.99;80.44
20027;BME280;10174;42.688;23.344;2022-09-27T10:25:01;94139.22;;;19.73;79.19
20027;BME280;10174;42.688;23.344;2022-09-27T10:30:02;94134.00;;;22.47;68.02
20027;BME280;10174;42.688;23.344;2022-09-27T10:32:33;94088.38;;;21.39;69.65
20027;BME280;10174;42.688;23.344;2022-09-27T10:35:31;94112.47;;;20.94;71.53
20027;BME280;10174;42.688;23.344;2022-09-27T10:40:51;94140.06;;;20.22;74.37
20027;BME280;10174;42.688;23.344;2022-09-27T10:43:31;94140.75;;;19.87;76.18
20027;BME280;10174;42.688;23.344;2022-09-27T10:46:20;94130.59;;;19.71;76.59
20027;BME280;10174;42.688;23.344;2022-09-27T10:49:07;94130.13;;;19.98;76.68
20027;BME280;10174;42.688;23.344;2022-09-27T10:51:33;94139.41;;;21.15;73.34
20027;BME280;10174;42.688;23.344;2022-09-27T10:53:59;94128.53;;;21.78;72.69
20027;BME280;10174;42.688;23.344;2022-09-27T10:56:31;94109.19;;;23.17;65.36
20027;BME280;10174;42.688;23.344;2022-09-27T10:58:58;94099.88;;;23.96;62.67
20027;BME280;10174;42.688;23.344;2022-09-27T11:01:25;94086.06;;;24.93;61.06
20027;BME280;10174;42.688;23.344;2022-09-27T11:03:57;94091.50;;;25.85;58.19
20027;BME280;10174;42.688;23.344;2022-09-27T11:08:52;94043.25;;;28.60;47.14
20027;BME280;10174;42.688;23.344;2022-09-27T11:11:23;94083.06;;;29.70;44.83
20027;BME280;10174;42.688;23.344;2022-09-27T11:14:01;94091.38;;;28.63;48.20
20027;BME280;10174;42.688;23.344;2022-09-27T11:30:20;94064.00;;;26.75;53.78
20027;BME280;10174;42.688;23.344;2022-09-27T11:38:23;94059.28;;;25.82;53.96
20027;BME280;10174;42.688;23.344;2022-09-27T11:46:38;93943.09;;;28.52;45.73
20027;BME280;10174;42.688;23.344;2022-09-27T11:54:45;94017.06;;;27.11;50.67
20027;BME280;10174;42.688;23.344;2022-09-27T11:57:37;94021.50;;;26.79;52.13
20027;BME280;10174;42.688;23.344;2022-09-27T12:00:20;94016.16;;;27.95;48.65
20027;BME280;10174;42.688;23.344;2022-09-27T12:11:22;93981.25;;;27.07;49.78
20027;BME280;10174;42.688;23.344;2022-09-27T12:16:43;93977.94;;;27.37;49.27
20027;BME280;10174;42.688;23.344;2022-09-27T12:19:24;93989.50;;;27.78;48.41
20027;BME280;10174;42.688;23.344;2022-09-27T12:21:53;93985.13;;;27.17;50.43
20027;BME280;10174;42.688;23.344;2022-09-27T12:24:21;93972.75;;;26.69;51.14
20027;BME280;10174;42.688;23.344;2022-09-27T12:26:51;93966.16;;;27.30;48.86
20027;BME280;10174;42.688;23.344;2022-09-27T12:29:28;93962.59;;;28.76;46.32
20027;BME280;10174;42.688;23.344;2022-09-27T12:37:04;93929.97;;;30.03;40.84
20027;BME280;10174;42.688;23.344;2022-09-27T12:42:48;93875.50;;;27.46;46.43
20027;BME280;10174;42.688;23.344;2022-09-27T12:45:16;93903.34;;;26.99;47.69
20027;BME280;10174;42.688;23.344;2022-09-27T12:50:57;93924.94;;;26.05;50.37
20027;BME280;10174;42.688;23.344;2022-09-27T12:57:01;93898.22;;;25.91;50.92
20027;BME280;10174;42.688;23.344;2022-09-27T12:59:44;93898.22;;;25.84;51.56
20027;BME280;10174;42.688;23.344;2022-09-27T13:02:25;93904.50;;;25.85;50.69
20027;BME280;10174;42.688;23.344;2022-09-27T13:10:52;93916.28;;;25.74;51.70
20027;BME280;10174;42.688;23.344;2022-09-27T13:13:22;93928.09;;;25.64;53.53
20027;BME280;10174;42.688;23.344;2022-09-27T13:15:55;93917.88;;;25.39;53.32
20027;BME280;10174;42.688;23.344;2022-09-27T13:18:48;93917.88;;;25.83;50.82
20027;BME280;10174;42.688;23.344;2022-09-27T13:29:49;93940.66;;;25.72;51.90
20027;BME280;10174;42.688;23.344;2022-09-27T13:32:24;93919.84;;;25.64;50.08
20027;BME280;10174;42.688;23.344;2022-09-27T13:34:55;93919.41;;;25.84;50.91
20027;BME280;10174;42.688;23.344;2022-09-27T13:37:35;93910.78;;;25.31;48.06
20027;BME280;10174;42.688;23.344;2022-09-27T13:40:29;93898.19;;;25.05;49.16
20027;BME280;10174;42.688;23.344;2022-09-27T13:45:59;93922.16;;;24.20;53.48
20027;BME280;10174;42.688;23.344;2022-09-27T13:59:07;93928.22;;;23.88;58.71
20027;BME280;10174;42.688;23.344;2022-09-27T14:01:38;93933.69;;;23.85;59.68
20027;BME280;10174;42.688;23.344;2022-09-27T14:04:22;93923.56;;;23.92;60.09
20027;BME280;10174;42.688;23.344;2022-09-27T14:06:53;93931.25;;;23.76;60.12
20027;BME280;10174;42.688;23.344;2022-09-27T14:09:26;93923.03;;;23.76;59.90
20027;BME280;10174;42.688;23.344;2022-09-27T14:11:59;93933.97;;;23.69;60.58
20027;BME280;10174;42.688;23.344;2022-09-27T14:14:30;93924.06;;;23.53;60.79
20027;BME280;10174;42.688;23.344;2022-09-27T14:17:00;93926.88;;;23.19;61.67
20027;BME280;10174;42.688;23.344;2022-09-27T14:19:26;93925.88;;;23.01;62.16
20027;BME280;10174;42.688;23.344;2022-09-27T14:21:53;93915.50;;;22.80;63.05
20027;BME280;10174;42.688;23.344;2022-09-27T14:24:32;93924.69;;;22.61;63.92
20027;BME280;10174;42.688;23.344;2022-09-27T14:27:19;93919.72;;;22.36;64.66
20027;BME280;10174;42.688;23.344;2022-09-27T14:30:00;93927.09;;;21.78;65.69
20027;BME280;10174;42.688;23.344;2022-09-27T14:32:44;93902.56;;;21.32;66.69
20027;BME280;10174;42.688;23.344;2022-09-27T14:35:20;93910.22;;;21.23;67.69
20027;BME280;10174;42.688;23.344;2022-09-27T14:38:09;93914.50;;;21.24;68.23
20027;BME280;10174;42.688;23.344;2022-09-27T14:40:43;93937.34;;;21.12;68.79
20027;BME280;10174;42.688;23.344;2022-09-27T14:43:15;93911.03;;;20.80;69.46
20027;BME280;10174;42.688;23.344;2022-09-27T14:45:41;93912.84;;;20.73;69.66
20027;BME280;10174;42.688;23.344;2022-09-27T14:48:30;93914.56;;;20.61;70.87
20027;BME280;10174;42.688;23.344;2022-09-27T14:50:59;93822.25;;;20.01;70.92
20027;BME280;10174;42.688;23.344;2022-09-27T14:53:30;93922.97;;;20.53;71.21
20027;BME280;10174;42.688;23.344;2022-09-27T14:55:56;93904.75;;;20.37;71.70
20027;BME280;10174;42.688;23.344;2022-09-27T14:58:22;93933.00;;;20.49;70.94
20027;BME280;10174;42.688;23.344;2022-09-27T15:00:49;93891.72;;;20.11;71.72
20027;BME280;10174;42.688;23.344;2022-09-27T15:03:28;93927.69;;;20.17;72.39
20027;BME280;10174;42.688;23.344;2022-09-27T15:05:56;93889.00;;;19.75;72.70
20027;BME280;10174;42.688;23.344;2022-09-27T15:08:26;93915.22;;;19.80;73.28
20027;BME280;10174;42.688;23.344;2022-09-27T15:10:55;93950.53;;;19.76;74.40
20027;BME280;10174;42.688;23.344;2022-09-27T15:13:22;94017.31;;;19.70;76.57
20027;BME280;10174;42.688;23.344;2022-09-27T15:15:49;94037.25;;;18.05;82.94
20027;BME280;10174;42.688;23.344;2022-09-27T15:18:42;94061.59;;;15.92;89.38
20027;BME280;10174;42.688;23.344;2022-09-27T15:21:13;93993.19;;;14.88;90.31
20027;BME280;10174;42.688;23.344;2022-09-27T15:23:41;94040.31;;;14.69;89.40
20027;BME280;10174;42.688;23.344;2022-09-27T15:28:42;94095.13;;;14.70;95.33
20027;BME280;10174;42.688;23.344;2022-09-27T15:31:08;94078.13;;;14.60;95.13
20027;BME280;10174;42.688;23.344;2022-09-27T15:33:34;94068.75;;;14.67;95.62
20027;BME280;10174;42.688;23.344;2022-09-27T15:36:05;94041.84;;;14.35;95.22
20027;BME280;10174;42.688;23.344;2022-09-27T15:38:35;94050.44;;;14.55;95.78
20027;BME280;10174;42.688;23.344;2022-09-27T15:41:24;94066.00;;;14.58;94.38
20027;BME280;10174;42.688;23.344;2022-09-27T15:43:51;94063.16;;;14.46;96.77